logo
App data

Call Of The Mighty Warriors

Two kingdoms in battle against each other, the king Bennevert called for the legendary mighty mercenaries to defend strategic posts in dangerous lands in the battlefield. Are you prepared to be a mercenary?
Store | Hub | SteamDB | Site
Developer: Jaison Robson Gusava, SC Jogos Publisher: SC Jogos
Genre: Indie, Strategy
Languages: English
Tags: Indie (73), Tower Defense (67), Casual (64), Strategy (61), 2D (46), Pixel Graphics (39), Fantasy (37), Archery (35), Combat (33), Singleplayer (31)
Category: Single-player, Steam Achievements, Steam Trading Cards, Steam Cloud
Release date: Jun 2, 2016 (previously in Early Access)
Price: $0.99
Old userscore: 52% Owners: 20,000 .. 50,000
Followers: 124
Playtime total: 05:48 (average) 07:04 (median)

Steam Spy is still in beta, so expect major bugs.

Owners data:

Access restricted.

This feature is only available to users with special access rights. Sorry.

If you want to proceed, you need to register or log in first and then back Steam Spy on Patreon. Look for Indie or Pro pledge.

Don't forget to use the same email as on Steam Spy!

Audience in 2 weeks:

Access restricted.

This feature is only available to users with special access rights. Sorry.

If you want to proceed, you need to register or log in first and then back Steam Spy on Patreon. Look for Indie or Pro pledge.

Don't forget to use the same email as on Steam Spy!

Peak daily concurrent players:

CCU data courtesy of SteamDB. Used with permission.

Hourly concurrent players:

Followers over time

Access restricted.

This feature is only available to users with special access rights. Sorry.

If you want to proceed, you need to register or log in first and then back Steam Spy on Patreon. Look for Indie or Pro pledge.

Don't forget to use the same email as on Steam Spy!

Views for top 50 videos on YouTube for this game:

Games similar to this one:

# Game Release date
Price
Score rank
(Userscore / Metascore)
Owners
Players
Playtime (Median)
1 Doodle Kingdom Jun 9, 2016 $8.99N/A (N/A)50,000 .. 100,0000%00:00 (00:00)
2 Fist Slash: Of Ultimate Fury Dec 10, 2015 $3.99N/A (N/A)0 .. 20,0000%00:00 (00:00)
3 Rencounter Nov 4, 2016 $0.59N/A (N/A)0 .. 20,0000%00:00 (00:00)
4 Perraw - FPS Clone War Alpha Jan 29, 2016 $0.99N/A (N/A)0 .. 20,0000%00:00 (00:00)
5 10 Second Ninja X Jul 19, 2016 $9.99N/A (N/A)200,000 .. 500,0000.75%00:07 (00:02)
6 Heavy Gear Assault Feb 10, 2017 $39.99N/A (N/A)20,000 .. 50,0000%00:00 (00:00)
7 Empire of the Gods May 13, 2008 $1.99N/A (N/A)20,000 .. 50,0000%00:00 (00:00)
8 Godus Wars Feb 3, 2016 $14.99N/A (N/A)50,000 .. 100,0000%00:00 (00:00)
9 Mindless Running Feb 22, 2016 $0.99N/A (N/A)20,000 .. 50,0000%00:00 (00:00)
10 Bell Ringer Mar 6, 2016 $6.99N/A (N/A)200,000 .. 500,0000%00:00 (00:00)
11 Bunker Punks May 28, 2018 $14.99N/A (N/A)0 .. 20,0000%00:00 (00:00)
12 Space Moth DX Jan 22, 2016 $4.99N/A (N/A)20,000 .. 50,0000%00:00 (00:00)
13 Amigdala Mar 28, 2016 $5.99N/A (N/A)20,000 .. 50,0000%00:00 (00:00)
14 TurnOn Jun 1, 2016 $14.99N/A (N/A/67%)20,000 .. 50,0000%00:00 (00:00)
15 1,000 Heads Among the Trees Dec 11, 2015 $4.99N/A (N/A)100,000 .. 200,0000%00:00 (00:00)
16 Tiny Guardians Mar 24, 2016 $9.99N/A (N/A)0 .. 20,0000%00:00 (00:00)
17 Dream Factory Nov 2, 2015 $9.99N/A (N/A)20,000 .. 50,0000%00:00 (00:00)
18 Volt Apr 14, 2014 $0.99N/A (N/A)50,000 .. 100,0000%00:00 (00:00)
19 Pulstar Jun 11, 2014 $1.99N/A (N/A)20,000 .. 50,0000%00:00 (00:00)
20 Vitrum Sep 25, 2012 $1.99N/A (N/A)0 .. 20,0000%00:00 (00:00)
21 T.E.C. 3001 Apr 10, 2014 N/AN/A (N/A)20,000 .. 50,0000%00:00 (00:00)
22 Three Dead Zed Jul 7, 2014 $5.99N/A (N/A)50,000 .. 100,0000%00:00 (00:00)
23 Munin Jun 10, 2014 $4.99N/A (N/A/68%)200,000 .. 500,0000%00:00 (00:00)
24 Uriel's Chasm Sep 12, 2014 $4.99N/A (N/A)200,000 .. 500,0000%00:00 (00:00)
25 Warring States Jan 29, 2018 $18.99N/A (N/A)0 .. 20,0000%00:00 (00:00)
26 Road Not Taken Aug 5, 2014 $14.99N/A (N/A/75%)50,000 .. 100,0000%00:00 (00:00)
27 Rabbit Hole 3D: Steam Edition Apr 25, 2014 $2.99N/A (N/A)50,000 .. 100,0000%00:00 (00:00)
28 Pivvot Jul 14, 2014 $4.99N/A (N/A)0 .. 20,0000%00:00 (00:00)
29 Kromaia Oct 23, 2014 $19.99N/A (N/A/68%)20,000 .. 50,0000%00:00 (00:00)
30 The Promised Land Jul 11, 2012 $6.99N/A (N/A)20,000 .. 50,0000%00:00 (00:00)
31 ReignMaker Apr 16, 2014 $14.99N/A (N/A)50,000 .. 100,0000%00:00 (00:00)
32 10 Second Ninja Mar 5, 2014 $1.99N/A (N/A/72%)50,000 .. 100,0000%00:00 (00:00)
33 Actual Sunlight Apr 3, 2014 $4.99N/A (N/A/77%)50,000 .. 100,0000%00:00 (00:00)
34 Labyrinthine Dreams May 26, 2015 $1.99N/A (N/A)20,000 .. 50,0000%00:00 (00:00)
35 Hero Quest: Tower Conflict Apr 13, 2016 $0.99N/A (N/A)200,000 .. 500,0000%00:00 (00:00)
36 Star Drifter Jun 1, 2016 $0.99N/A (N/A)200,000 .. 500,0000%00:00 (00:00)
37 CrazyCars3D Mar 28, 2016 $2.99N/A (N/A)50,000 .. 100,0000%00:00 (00:00)
38 Karma Miwa Aug 12, 2016 $0.99N/A (N/A)20,000 .. 50,0000%00:00 (00:00)
39 Mainlining Jan 26, 2017 $12.99N/A (N/A/73%)20,000 .. 50,0000%00:00 (00:00)
40 Super Duper Party Pooper Jun 6, 2016 $0.99N/A (N/A/40%)100,000 .. 200,0000%00:00 (00:00)
41 OPUS: The Day We Found Earth Apr 21, 2016 $8.99N/A (N/A)50,000 .. 100,0000%00:00 (00:00)
42 DashBored Jun 13, 2016 $4.99N/A (N/A)20,000 .. 50,0000%00:00 (00:00)
43 NORTH Apr 27, 2016 $1.99N/A (N/A)200,000 .. 500,0000%00:00 (00:00)
44 Robot Legions Reborn Jul 19, 2016 $2.99N/A (N/A)20,000 .. 50,0000%00:00 (00:00)
45 上帝之城 I:监狱帝国 [City of God I - Prison Empire] Jul 9, 2018 $18.99N/A (N/A)50,000 .. 100,0000%00:00 (00:00)
46 Too Angry to Space Aug 8, 2016 $4.99N/A (N/A)0 .. 20,0000%00:00 (00:00)
47 Angel Express [Tokkyu Tenshi] Jul 15, 2016 $9.99N/A (N/A)0 .. 20,0000%00:00 (00:00)
48 Dinosaur Forest May 17, 2017 $1.99N/A (N/A)50,000 .. 100,0000%00:00 (00:00)
49 Scanner Sombre Apr 26, 2017 $5.99N/A (N/A/67%)100,000 .. 200,0000%00:00 (00:00)
50 Cube Land Arena Mar 29, 2016 $0.99N/A (N/A)50,000 .. 100,0000%00:00 (00:00)
51 ORCS May 20, 2016 $1.99N/A (N/A)20,000 .. 50,0000%00:00 (00:00)
52 Mega Coin Squad Aug 15, 2014 $14.99N/A (N/A/56%)0 .. 20,0000%00:00 (00:00)
53 Frederic: Evil Strikes Back May 23, 2014 $7.99N/A (N/A)50,000 .. 100,0000%00:00 (00:00)
54 OTTTD Aug 6, 2014 $7.99N/A (N/A)50,000 .. 100,0000%00:00 (00:00)
55 Rhythm Destruction Jun 16, 2014 $4.99N/A (N/A)50,000 .. 100,0000%00:00 (00:00)
56 The Masterplan Jun 4, 2015 $19.99N/A (N/A/68%)100,000 .. 200,0000%00:00 (00:00)
57 Boson X Sep 15, 2014 $2.99N/A (N/A)50,000 .. 100,0000%00:00 (00:00)
58 Velocibox Sep 8, 2014 $4.99N/A (N/A)50,000 .. 100,0000%00:00 (00:00)
59 Oblitus Feb 27, 2015 $14.99N/A (N/A/69%)20,000 .. 50,0000%00:00 (00:00)
60 Squishy the Suicidal Pig Oct 23, 2014 $5.99N/A (N/A)200,000 .. 500,0000%00:00 (00:00)
61 Iron Fisticle Sep 16, 2014 $8.99N/A (N/A)20,000 .. 50,0000%00:00 (00:00)
62 Great Permutator Sep 15, 2014 $6.99N/A (N/A)20,000 .. 50,0000%00:00 (00:00)
63 Fancy Skulls Jun 16, 2014 $8.99N/A (N/A)20,000 .. 50,0000%00:00 (00:00)
64 Chariot Nov 12, 2014 $14.99N/A (N/A/76%)50,000 .. 100,0000%00:00 (00:00)
65 Back to Bed Aug 6, 2014 $5.99N/A (N/A)500,000 .. 1,000,0003.17%00:16 (00:10)
66 Dreaming Sarah Mar 12, 2015 $5.99N/A (N/A)100,000 .. 200,0000%00:00 (00:00)
67 NEON STRUCT May 20, 2015 $17.99N/A (N/A/62%)50,000 .. 100,0000%00:00 (00:00)
68 Captain Forever Remix Jun 3, 2016 $9.99N/A (N/A)50,000 .. 100,0000%00:00 (00:00)
69 Joana's Life Sep 1, 2016 $5.99N/A (N/A)0 .. 20,0000%00:00 (00:00)
70 Wayout Nov 4, 2016 $0.99N/A (N/A)50,000 .. 100,0000%00:00 (00:00)
71 Intensive Exposure Sep 6, 2016 $4.99N/A (N/A)0 .. 20,0000%00:00 (00:00)
72 Witch It May 31, 2017 $14.99N/A (N/A)200,000 .. 500,0007.5%00:33 (00:30)
73 It Comes Around - A Kinetic Novel Sep 29, 2016 $2.99N/A (N/A)20,000 .. 50,0000%00:00 (00:00)
74 Introvert Quest Mar 15, 2017 $4.99N/A (N/A)100,000 .. 200,0000%00:00 (00:00)
75 Starship Annihilator Sep 2, 2016 $0.99N/A (N/A)20,000 .. 50,0000%00:00 (00:00)
76 Distant Space Dec 20, 2016 $0.99N/A (N/A)50,000 .. 100,0000%00:00 (00:00)
77 Deisim Dec 19, 2016 $7.99N/A (N/A)20,000 .. 50,0000%00:00 (00:00)
78 Child Phobia: Nightcoming Fears Dec 20, 2016 $1.99N/A (N/A)20,000 .. 50,0000%00:00 (00:00)
79 The Gleam: VR Escape the Room Oct 14, 2016 $3.99N/A (N/A)0 .. 20,0000%00:00 (00:00)
80 Mistwood Heroes Dec 30, 2016 $0.99N/A (N/A)20,000 .. 50,0000%00:00 (00:00)
81 mr.President Prologue Episode Sep 20, 2016 $0.99N/A (N/A)20,000 .. 50,0000%00:00 (00:00)
82 Three Kingdoms The Last Warlord | 三國志漢末霸業 May 26, 2017 $16.99N/A (N/A)20,000 .. 50,0000%00:00 (00:00)
83 BoomTown! Deluxe Oct 14, 2016 $1.99N/A (N/A)0 .. 20,0000%00:00 (00:00)
84 Wheels of Aurelia Sep 20, 2016 $9.99N/A (N/A/63%)20,000 .. 50,0000%00:00 (00:00)
85 Snake Pass Mar 28, 2017 $4.99N/A (N/A/71%)200,000 .. 500,0002.7%00:03 (00:01)
86 Ephemerid: A Musical Adventure Feb 3, 2015 $1.99N/A (N/A)20,000 .. 50,0000%00:00 (00:00)
87 Horizon Shift May 29, 2015 $4.99N/A (N/A)100,000 .. 200,0000%00:00 (00:00)
88 Sky Mercenaries Dec 16, 2014 $3.99N/A (N/A)20,000 .. 50,0000%00:00 (00:00)
89 Traverser Jul 9, 2015 $14.99N/A (N/A/61%)0 .. 20,0000%00:00 (00:00)
90 Chronicles of a Dark Lord: Episode 1 Tides of Fate Complete Dec 19, 2014 N/AN/A (N/A)50,000 .. 100,0000%00:00 (00:00)
91 The Deer God Feb 27, 2015 $14.99N/A (N/A/59%)20,000 .. 50,0000%00:00 (00:00)
92 Ukrainian Ninja Dec 23, 2014 FreeN/A (N/A)20,000 .. 50,0000%00:00 (00:00)
93 Pix the Cat Jan 29, 2015 $9.99N/A (N/A/77%)50,000 .. 100,0000%00:00 (00:00)
94 TIMEframe Jul 7, 2015 $5.99N/A (N/A)50,000 .. 100,0000%00:00 (00:00)
95 Tulpa Jan 29, 2015 $2.99N/A (N/A)50,000 .. 100,0000%00:00 (00:00)
96 Glorkian Warrior: The Trials Of Glork Mar 24, 2015 $3.99N/A (N/A)20,000 .. 50,0000%00:00 (00:00)
97 Amphora Nov 12, 2014 $13.99N/A (N/A)0 .. 20,0000%00:00 (00:00)
98 Countless Rooms of Death Feb 20, 2014 $0.99N/A (N/A)20,000 .. 50,0000%00:00 (00:00)
99 Phoenix Force Nov 13, 2014 $0.99N/A (N/A)50,000 .. 100,0000%00:00 (00:00)
100 Ninja Pizza Girl Sep 30, 2015 $6.99N/A (N/A/82%)50,000 .. 100,0000%00:00 (00:00)
101 Marvin's Mittens Dec 17, 2014 $5.99N/A (N/A)0 .. 20,0000%00:00 (00:00)
102 iO Dec 5, 2014 $4.99N/A (N/A)50,000 .. 100,0000%00:00 (00:00)
103 Super Splatters Jun 26, 2013 N/AN/A (N/A/73%)50,000 .. 100,0000%00:00 (00:00)
104 Home Jun 1, 2012 $4.99N/A (N/A/69%)200,000 .. 500,0000%00:00 (00:00)
105 Ms. Splosion Man Apr 3, 2013 $9.99N/A (N/A)20,000 .. 50,0000%00:00 (00:00)
106 Ultratron Mar 18, 2013 $9.99N/A (N/A)100,000 .. 200,0000%00:00 (00:00)
107 SOL: Exodus Jan 25, 2012 $7.99N/A (N/A/57%)50,000 .. 100,0000%00:00 (00:00)
108 Cargo Commander Nov 1, 2012 $1.99N/A (N/A)100,000 .. 200,0000%00:00 (00:00)
109 Titan Attacks! Feb 3, 2012 $4.99N/A (N/A)50,000 .. 100,0000%00:00 (00:00)
110 Puddle Nov 9, 2012 $7.99N/A (N/A)50,000 .. 100,0000%00:00 (00:00)
111 BIT.TRIP CORE Oct 2, 2012 $9.99N/A (N/A)20,000 .. 50,0000%00:00 (00:00)
112 Papo & Yo Apr 18, 2013 $14.99N/A (N/A/70%)200,000 .. 500,0000%00:00 (00:00)
113 BIT.TRIP VOID Dec 19, 2012 $9.99N/A (N/A)20,000 .. 50,0000%00:00 (00:00)
114 Bad Hotel Oct 16, 2013 $4.99N/A (N/A)50,000 .. 100,0000%00:00 (00:00)
115 Tales From Space: Mutant Blobs Attack Aug 15, 2012 $2.49N/A (N/A/83%)100,000 .. 200,0000%00:00 (00:00)
116 Godus $14.99N/A (N/A)50,000 .. 100,0000%00:00 (00:00)
117 All Zombies Must Die!: Scorepocalypse Apr 19, 2012 $4.99N/A (N/A)20,000 .. 50,0000%00:00 (00:00)
118 BIT.TRIP BEAT Nov 2, 2010 $9.99N/A (N/A)200,000 .. 500,0000%00:00 (00:00)
119 Party of Sin Dec 13, 2012 $5.99N/A (N/A)50,000 .. 100,0000%00:00 (00:00)
120 Monolith Jun 7, 2017 $7.99N/A (N/A/83%)50,000 .. 100,0000%00:00 (00:00)
121 Guns of Icarus Alliance Mar 31, 2017 $4.99N/A (N/A)50,000 .. 100,0000%00:00 (00:00)
122 The Archotek Project Apr 28, 2017 $0.99N/A (N/A)200,000 .. 500,0000%00:00 (00:00)
123 GORN Jul 18, 2019 $19.99N/A (N/A/85%)200,000 .. 500,0000%00:00 (00:00)
124 Gryphon Knight Epic Aug 20, 2015 $6.99N/A (N/A/55%)20,000 .. 50,0000%00:00 (00:00)
125 Starship Traveller Mar 11, 2015 $4.99N/A (N/A)0 .. 20,0000%00:00 (00:00)
126 Spellsworn Mar 13, 2018 FreeN/A (N/A)100,000 .. 200,0000%00:00 (00:00)
127 BlastZone 2 Feb 19, 2015 $9.99N/A (N/A)20,000 .. 50,0000%00:00 (00:00)
128 Luna Sky Oct 2, 2015 $12.99N/A (N/A)50,000 .. 100,0000%00:00 (00:00)
129 Porcunipine May 21, 2015 $9.99N/A (N/A)20,000 .. 50,0000%00:00 (00:00)
130 Interstellar Rift Jun 23, 2015 $18.99N/A (N/A)50,000 .. 100,0000%00:00 (00:00)
131 An Octave Higher Mar 27, 2015 $11.99N/A (N/A)0 .. 20,0000%00:00 (00:00)
132 Broken Bots Jun 7, 2016 $6.99N/A (N/A)0 .. 20,0000%00:00 (00:00)
133 Centauri Sector Jun 24, 2015 $4.99N/A (N/A)20,000 .. 50,0000%00:00 (00:00)
134 Pixel Star May 22, 2015 $2.99N/A (N/A)20,000 .. 50,0000%00:00 (00:00)
135 Beyond Eyes Aug 11, 2015 $14.99N/A (N/A/60%)100,000 .. 200,0000%00:00 (00:00)
136 Polyball Dec 1, 2017 $14.99N/A (N/A)100,000 .. 200,0000%00:00 (00:00)
137 Soccer Rage Jun 2, 2015 $9.99N/A (N/A)20,000 .. 50,0000%00:00 (00:00)
138 It came from space and ate our brains Mar 19, 2015 $14.99N/A (N/A)200,000 .. 500,0000%00:00 (00:00)
139 Inside My Radio May 11, 2015 $14.99N/A (N/A/68%)20,000 .. 50,0000%00:00 (00:00)
140 Rats - Time is running out! Aug 19, 2015 $4.99N/A (N/A)20,000 .. 50,0000%00:00 (00:00)
141 Redemption: Eternal Quest Aug 28, 2015 $1.99N/A (N/A)100,000 .. 200,0000%00:00 (00:00)
142 Monument Jun 5, 2015 $3.99N/A (N/A)20,000 .. 50,0000%00:00 (00:00)
143 Blaster Shooter GunGuy! Aug 10, 2015 $1.99N/A (N/A)50,000 .. 100,0000%00:00 (00:00)
144 Western Press Apr 21, 2016 $4.99N/A (N/A)20,000 .. 50,0000%00:00 (00:00)
145 Wild Island Quest Sep 4, 2015 $1.99N/A (N/A)50,000 .. 100,0000%00:00 (00:00)
146 Sky Rogue Aug 24, 2017 $19.99N/A (N/A)20,000 .. 50,0000%00:00 (00:00)
147 Shmadow Nov 3, 2015 $1.99N/A (N/A)20,000 .. 50,0000%00:00 (00:00)
148 Action Alien Jun 26, 2015 $5.99N/A (N/A)50,000 .. 100,0000%00:00 (00:00)
149 Moonbase 332 May 20, 2015 $4.99N/A (N/A)20,000 .. 50,0000%00:00 (00:00)
150 8Bit Fiesta - Party Game Sep 30, 2016 FreeN/A (N/A)0 .. 20,0000%00:00 (00:00)
151 Kitchen Simulator 2015 Sep 4, 2015 $0.69N/A (N/A)50,000 .. 100,0000%00:00 (00:00)
152 Aviary Attorney Dec 21, 2015 $14.99N/A (N/A/77%)50,000 .. 100,0000%00:00 (00:00)
153 Press X to Not Die Oct 6, 2017 $2.99N/A (N/A)50,000 .. 100,0000%00:00 (00:00)
154 none Nov 4, 2015 N/AN/A (N/A)20,000 .. 50,0000%00:00 (00:00)
155 Treeker: The Lost Glasses Remake May 13, 2015 $2.99N/A (N/A)20,000 .. 50,0000%00:00 (00:00)
156 Earth Overclocked Dec 4, 2015 $4.99N/A (N/A)20,000 .. 50,0000%00:00 (00:00)
157 The Adventures of Mr. Bobley Jun 30, 2015 $0.99N/A (N/A)50,000 .. 100,0000%00:00 (00:00)
158 Survivor Squad Nov 8, 2013 $2.99N/A (N/A)100,000 .. 200,0000%00:00 (00:00)
159 Intake Nov 5, 2013 $9.99N/A (N/A)20,000 .. 50,0000%00:00 (00:00)
160 Montague's Mount Nov 19, 2013 $4.99N/A (N/A/39%)20,000 .. 50,0000%00:00 (00:00)
161 Super Puzzle Platformer Deluxe May 24, 2013 $7.99N/A (N/A)20,000 .. 50,0000%00:00 (00:00)
162 Ballpoint Universe - Infinite Dec 17, 2013 $3.99N/A (N/A)50,000 .. 100,0000%00:00 (00:00)
163 Knytt Underground Oct 25, 2013 $6.99N/A (N/A)50,000 .. 100,0000%00:00 (00:00)
164 Journal Feb 17, 2014 $9.99N/A (N/A/59%)20,000 .. 50,0000%00:00 (00:00)
165 Omegalodon Mar 9, 2012 $9.99N/A (N/A)20,000 .. 50,0000%00:00 (00:00)
166 Full Bore May 6, 2014 $14.99N/A (N/A/72%)20,000 .. 50,0000%00:00 (00:00)
167 Solar Flux Oct 24, 2013 $9.99N/A (N/A)100,000 .. 200,0000%00:00 (00:00)
168 Procyon Feb 26, 2014 $3.99N/A (N/A)20,000 .. 50,0000%00:00 (00:00)
169 Maia Nov 23, 2018 $24.99N/A (N/A)50,000 .. 100,0000%00:00 (00:00)
170 Jones On Fire Mar 14, 2013 $2.99N/A (N/A)50,000 .. 100,0000%00:00 (00:00)
171 FOTONICA Nov 6, 2014 $14.99N/A (N/A/71%)0 .. 20,0000%00:00 (00:00)
172 Wake $4.99N/A (N/A)0 .. 20,0000%00:00 (00:00)
173 Gentlemen! Nov 5, 2013 $4.99N/A (N/A)20,000 .. 50,0000%00:00 (00:00)
174 Zack Zero Apr 29, 2013 $2.99N/A (N/A)50,000 .. 100,0000%00:00 (00:00)

Tags over time:

Access restricted.

This feature is only available to users with special access rights. Sorry.

If you want to proceed, you need to register or log in first and then back Steam Spy on Patreon. Look for Indie or Pro pledge.

Don't forget to use the same email as on Steam Spy!

Owners of this game also own:

Access restricted.

This feature is only available to users with special access rights. Sorry.

If you want to proceed, you need to register or log in first and then back Steam Spy on Patreon. Look for Indie or Pro pledge.

Don't forget to use the same email as on Steam Spy!

Playtime distribution:

Access restricted.

This feature is only available to users with special access rights. Sorry.

If you want to proceed, you need to register or log in first and then back Steam Spy on Patreon. Look for Indie or Pro pledge.

Don't forget to use the same email as on Steam Spy!

Playtime (2 weeks):

Access restricted.

This feature is only available to users with special access rights. Sorry.

If you want to proceed, you need to register or log in first and then back Steam Spy on Patreon. Look for Indie or Pro pledge.

Don't forget to use the same email as on Steam Spy!

User reviews:

Login required.

Please register or log in to see this information.